createdAt,value
2022-10-19T00:01:20.795Z,66.08
2022-10-19T00:03:53.495Z,66.32
2022-10-19T00:06:31.179Z,66.15
2022-10-19T00:09:02.949Z,66.61
2022-10-19T00:11:34.417Z,66.49
2022-10-19T00:14:05.287Z,66.15
2022-10-19T00:16:36.891Z,65.79
2022-10-19T00:19:12.729Z,65.15
2022-10-19T00:21:40.239Z,65.36
2022-10-19T00:24:08.743Z,65.64
2022-10-19T00:26:36.403Z,65.78
2022-10-19T00:29:05.477Z,65.97
2022-10-19T00:31:32.783Z,65.99
2022-10-19T00:34:03.319Z,65.86
2022-10-19T00:36:35.733Z,65.88
2022-10-19T00:39:07.807Z,66.04
2022-10-19T00:41:37.170Z,66.54
2022-10-19T00:44:30.228Z,66.30
2022-10-19T00:47:06.324Z,66.10
2022-10-19T00:49:40.382Z,66.04
2022-10-19T00:52:17.282Z,66.41
2022-10-19T00:54:46.180Z,66.26
2022-10-19T00:57:15.829Z,66.29
2022-10-19T00:59:44.866Z,66.68
2022-10-19T01:02:12.564Z,67.03
2022-10-19T01:04:46.024Z,67.05
2022-10-19T01:07:14.043Z,67.32
2022-10-19T01:09:42.326Z,66.94
2022-10-19T01:13:04.045Z,66.54
2022-10-19T01:16:21.778Z,66.73
2022-10-19T01:19:52.624Z,66.26
2022-10-19T01:22:50.644Z,66.55
2022-10-19T01:25:37.911Z,66.40
2022-10-19T01:28:47.683Z,66.21
2022-10-19T01:31:26.627Z,66.06
2022-10-19T01:34:26.115Z,66.08
2022-10-19T01:37:22.981Z,66.19
2022-10-19T01:40:10.551Z,66.44
2022-10-19T01:42:46.660Z,65.88
2022-10-19T01:45:16.668Z,65.63
2022-10-19T01:47:53.654Z,65.39
2022-10-19T01:50:35.875Z,65.00
2022-10-19T01:53:07.749Z,65.01
2022-10-19T01:55:39.171Z,65.08
2022-10-19T01:58:15.526Z,65.18
2022-10-19T02:00:45.861Z,64.81
2022-10-19T02:03:13.873Z,64.84
2022-10-19T02:05:41.871Z,64.69
2022-10-19T02:08:16.605Z,64.70
2022-10-19T02:10:45.487Z,64.40
2022-10-19T02:13:15.341Z,64.36
2022-10-19T02:15:47.971Z,64.06
2022-10-19T02:18:23.648Z,64.13
2022-10-19T02:20:50.743Z,63.36
2022-10-19T02:23:22.342Z,63.63
2022-10-19T02:25:49.651Z,63.90
2022-10-19T02:28:16.893Z,63.71
2022-10-19T02:30:44.167Z,63.75
2022-10-19T02:33:12.636Z,63.87
2022-10-19T02:35:40.350Z,64.02
2022-10-19T02:38:11.316Z,63.83
2022-10-19T02:40:44.112Z,63.70
2022-10-19T02:43:15.168Z,63.39
2022-10-19T02:45:51.737Z,63.25
2022-10-19T02:48:23.894Z,62.62
2022-10-19T02:50:52.133Z,62.96
2022-10-19T02:53:19.446Z,62.54
2022-10-19T02:55:49.551Z,62.63
2022-10-19T02:58:16.864Z,62.79
2022-10-19T03:00:43.996Z,62.76
2022-10-19T03:03:11.379Z,62.84
2022-10-19T03:05:38.552Z,62.78
2022-10-19T03:08:05.723Z,62.29
2022-10-19T03:10:32.821Z,61.99
2022-10-19T03:13:00.331Z,62.36
2022-10-19T03:15:29.732Z,61.86
2022-10-19T03:17:57.140Z,61.83
2022-10-19T03:20:24.286Z,61.86
2022-10-19T03:25:26.160Z,62.34
2022-10-19T03:27:53.493Z,62.49
2022-10-19T03:30:20.558Z,62.34
2022-10-19T03:32:47.678Z,62.41
2022-10-19T03:35:15.010Z,62.67
2022-10-19T03:37:42.029Z,63.23
2022-10-19T03:40:09.883Z,63.01
2022-10-19T03:42:39.403Z,62.83
2022-10-19T03:45:07.317Z,62.67
2022-10-19T03:47:37.335Z,62.15
2022-10-19T03:50:06.074Z,62.61
2022-10-19T03:52:33.071Z,62.55
2022-10-19T03:55:00.160Z,62.40
2022-10-19T03:57:27.271Z,62.62
2022-10-19T03:59:54.269Z,62.56
2022-10-19T04:02:21.323Z,62.05
2022-10-19T04:04:48.475Z,62.12
2022-10-19T04:07:15.458Z,62.24
2022-10-19T04:09:42.501Z,62.79
2022-10-19T04:12:09.505Z,62.22
2022-10-19T04:14:52.542Z,62.29
2022-10-19T04:17:23.823Z,61.88
2022-10-19T04:19:50.872Z,61.48
2022-10-19T04:22:17.917Z,61.29
2022-10-19T04:24:45.008Z,61.40
2022-10-19T04:27:15.145Z,61.55
2022-10-19T04:29:42.221Z,60.98
2022-10-19T04:32:09.304Z,60.52
2022-10-19T04:34:39.236Z,60.54
2022-10-19T04:37:07.179Z,60.58
2022-10-19T04:39:34.240Z,60.84
2022-10-19T04:42:01.281Z,61.14
2022-10-19T04:44:28.828Z,61.01
2022-10-19T04:46:55.873Z,61.06
2022-10-19T04:49:22.982Z,61.30
2022-10-19T04:51:50.031Z,61.74
2022-10-19T04:54:17.132Z,61.74
2022-10-19T04:56:44.147Z,61.47
2022-10-19T04:59:11.218Z,61.41
2022-10-19T05:01:39.165Z,61.37
2022-10-19T05:04:10.757Z,61.53
2022-10-19T05:06:38.096Z,60.99
2022-10-19T05:09:05.218Z,60.88
2022-10-19T05:11:32.265Z,61.25
2022-10-19T05:13:59.361Z,61.47
2022-10-19T05:16:26.730Z,60.81
2022-10-19T05:18:59.751Z,61.23
2022-10-19T05:21:29.093Z,61.01
2022-10-19T05:23:57.723Z,60.72
2022-10-19T05:26:27.354Z,61.11
2022-10-19T05:28:59.481Z,61.68
2022-10-19T05:31:30.307Z,62.35
2022-10-19T05:33:57.900Z,61.66
2022-10-19T05:36:35.087Z,61.40
2022-10-19T05:39:09.419Z,61.06
2022-10-19T05:41:39.528Z,60.97
2022-10-19T05:44:06.645Z,60.77
2022-10-19T05:46:34.875Z,61.13
2022-10-19T05:49:02.096Z,60.61
2022-10-19T05:51:29.546Z,60.69
2022-10-19T05:53:57.741Z,61.01
2022-10-19T05:56:28.534Z,60.81
2022-10-19T05:58:57.793Z,60.71
2022-10-19T06:01:26.371Z,60.09
2022-10-19T06:03:58.105Z,59.73
2022-10-19T06:06:27.304Z,59.53
2022-10-19T06:08:56.295Z,59.20
2022-10-19T06:11:27.516Z,58.85
2022-10-19T06:13:57.242Z,58.73
2022-10-19T06:16:26.307Z,58.34
2022-10-19T06:18:55.079Z,58.53
2022-10-19T06:21:26.207Z,58.30
2022-10-19T06:23:59.792Z,58.06
2022-10-19T06:26:28.352Z,58.31
2022-10-19T06:29:00.249Z,58.21
2022-10-19T06:31:33.920Z,57.60
2022-10-19T06:34:01.842Z,57.49
2022-10-19T06:36:31.082Z,57.62
2022-10-19T06:38:59.997Z,56.96
2022-10-19T06:41:27.621Z,56.74
2022-10-19T06:43:55.848Z,56.69
2022-10-19T06:46:27.474Z,55.08
2022-10-19T06:48:57.980Z,54.15
2022-10-19T06:51:28.219Z,53.73
2022-10-19T06:53:57.249Z,53.16
2022-10-19T06:56:26.250Z,52.39
2022-10-19T06:58:54.734Z,52.21
2022-10-19T07:01:23.040Z,52.13
2022-10-19T07:03:54.136Z,51.99
2022-10-19T07:06:23.627Z,51.91
2022-10-19T07:08:50.743Z,51.60
2022-10-19T07:11:22.694Z,51.32
2022-10-19T07:13:52.148Z,50.86
2022-10-19T07:16:21.256Z,51.26
2022-10-19T07:18:51.996Z,50.91
2022-10-19T07:21:21.219Z,51.02
2022-10-19T07:23:49.008Z,50.77
2022-10-19T07:26:28.867Z,50.43
2022-10-19T07:28:57.647Z,50.76
2022-10-19T07:31:26.917Z,50.96
2022-10-19T07:33:59.954Z,50.91
2022-10-19T07:36:29.078Z,50.26
2022-10-19T07:38:57.100Z,50.86
2022-10-19T07:41:25.939Z,51.18
2022-10-19T07:43:54.137Z,51.26
2022-10-19T07:46:29.283Z,52.12
2022-10-19T07:48:56.554Z,52.56
2022-10-19T07:51:23.899Z,52.19
2022-10-19T07:53:51.390Z,52.13
2022-10-19T07:56:27.046Z,53.18
2022-10-19T07:58:56.526Z,53.15
2022-10-19T08:01:30.924Z,53.67
2022-10-19T08:06:47.307Z,54.06
2022-10-19T08:09:33.465Z,53.61
2022-10-19T08:12:02.425Z,53.60
2022-10-19T08:14:29.484Z,53.56
2022-10-19T08:16:56.652Z,52.78
2022-10-19T08:19:24.376Z,53.00
2022-10-19T08:21:51.493Z,54.26
2022-10-19T08:24:20.445Z,53.94
2022-10-19T08:26:51.102Z,53.67
2022-10-19T08:29:21.047Z,54.21
2022-10-19T08:31:49.754Z,54.75
2022-10-19T08:34:17.703Z,54.03
2022-10-19T08:36:44.963Z,53.33
2022-10-19T08:39:12.936Z,54.05
2022-10-19T08:42:15.378Z,54.16
2022-10-19T08:45:24.126Z,54.05
2022-10-19T08:48:19.960Z,54.11
2022-10-19T08:50:48.670Z,53.27
2022-10-19T08:53:42.877Z,52.97
2022-10-19T08:56:51.139Z,53.03
2022-10-19T08:59:45.273Z,51.91
2022-10-19T09:02:59.018Z,50.88
2022-10-19T09:05:44.263Z,50.28
2022-10-19T09:08:17.433Z,49.88
2022-10-19T09:10:50.951Z,50.63
2022-10-19T09:14:00.431Z,50.94
2022-10-19T09:16:29.989Z,50.25
2022-10-19T09:18:57.227Z,49.67
2022-10-19T09:21:51.264Z,49.83
2022-10-19T09:24:47.197Z,48.99
2022-10-19T09:27:25.255Z,49.04
2022-10-19T09:30:03.759Z,48.83
2022-10-19T09:32:39.124Z,48.47
2022-10-19T09:35:28.411Z,48.34
2022-10-19T09:37:56.783Z,50.46
2022-10-19T09:40:30.694Z,50.72
2022-10-19T09:42:58.950Z,49.72
2022-10-19T09:45:57.991Z,49.81
2022-10-19T09:48:49.961Z,48.35
2022-10-19T09:51:19.710Z,48.22
2022-10-19T09:53:51.563Z,47.65
2022-10-19T09:56:23.179Z,47.48
2022-10-19T09:58:57.371Z,46.81
2022-10-19T10:01:43.262Z,47.15
2022-10-19T10:04:18.119Z,46.96
2022-10-19T10:06:48.757Z,46.46
2022-10-19T10:09:26.054Z,45.49
2022-10-19T10:11:57.799Z,45.40
2022-10-19T10:14:36.980Z,44.17
2022-10-19T10:17:14.998Z,44.60
2022-10-19T10:19:52.629Z,44.58
2022-10-19T10:22:30.911Z,43.61
2022-10-19T10:24:58.396Z,44.56
2022-10-19T10:27:34.812Z,45.82
2022-10-19T10:30:16.859Z,45.71
2022-10-19T10:32:52.378Z,44.82
2022-10-19T10:35:49.491Z,44.39
2022-10-19T10:38:30.815Z,45.92
2022-10-19T10:41:04.877Z,44.81
2022-10-19T10:43:36.175Z,44.02
2022-10-19T10:46:15.295Z,43.32
2022-10-19T10:48:55.665Z,43.91
2022-10-19T10:51:28.833Z,44.29
2022-10-19T10:54:28.562Z,44.68
2022-10-19T10:57:16.816Z,44.98
2022-10-19T11:00:15.927Z,45.11
2022-10-19T11:03:12.164Z,44.13
2022-10-19T11:05:46.871Z,44.62
2022-10-19T11:08:45.346Z,44.44
2022-10-19T11:11:22.298Z,45.17
2022-10-19T11:14:11.144Z,45.72
2022-10-19T11:16:45.435Z,46.01
2022-10-19T11:19:28.235Z,45.71
2022-10-19T11:22:35.762Z,44.91
2022-10-19T11:25:31.036Z,44.13
2022-10-19T11:28:39.767Z,43.72
2022-10-19T11:31:51.194Z,43.37
2022-10-19T11:34:23.687Z,43.68
2022-10-19T11:37:14.593Z,42.26
2022-10-19T11:40:03.331Z,41.96
2022-10-19T11:43:03.421Z,41.09
2022-10-19T11:45:42.942Z,41.23
2022-10-19T11:48:23.966Z,40.84
2022-10-19T11:51:33.778Z,39.65
2022-10-19T11:54:23.877Z,39.57
2022-10-19T11:57:11.482Z,39.90
2022-10-19T12:00:03.946Z,41.03
2022-10-19T12:03:15.254Z,42.00
2022-10-19T12:06:18.031Z,43.06
2022-10-19T12:09:32.531Z,43.31
2022-10-19T12:12:31.061Z,42.21
2022-10-19T12:15:11.680Z,42.76
2022-10-19T12:17:41.795Z,42.38
2022-10-19T12:20:37.649Z,42.92
2022-10-19T12:23:28.252Z,42.83
2022-10-19T12:25:58.563Z,41.53
2022-10-19T12:28:31.409Z,41.13
2022-10-19T12:31:01.363Z,40.54
2022-10-19T12:33:57.899Z,40.66
2022-10-19T12:36:49.225Z,40.68
2022-10-19T12:39:35.124Z,40.64
2022-10-19T12:42:36.925Z,40.45
2022-10-19T12:45:23.820Z,40.83
2022-10-19T12:48:10.971Z,40.76
2022-10-19T12:50:50.438Z,41.29
2022-10-19T12:53:44.402Z,41.25
2022-10-19T12:56:19.080Z,41.84
2022-10-19T12:58:50.872Z,41.84
2022-10-19T13:01:44.404Z,43.08
2022-10-19T13:04:16.315Z,43.18
2022-10-19T13:07:03.007Z,42.65
2022-10-19T13:09:35.686Z,42.65
2022-10-19T13:12:19.377Z,42.26
2022-10-19T13:15:00.749Z,41.96
2022-10-19T13:17:38.026Z,41.60
2022-10-19T13:20:14.402Z,41.75
2022-10-19T13:22:46.234Z,40.46
2022-10-19T13:25:21.505Z,40.41
2022-10-19T13:27:51.517Z,40.04
2022-10-19T13:30:47.952Z,40.33
2022-10-19T13:33:33.046Z,39.83
2022-10-19T13:36:00.634Z,39.46
2022-10-19T13:38:40.207Z,39.57
2022-10-19T13:41:25.222Z,39.74
2022-10-19T13:44:12.404Z,39.81
2022-10-19T13:46:39.591Z,40.37
2022-10-19T13:49:27.768Z,40.06
2022-10-19T13:52:09.238Z,40.74
2022-10-19T13:54:53.170Z,41.16
2022-10-19T13:57:41.572Z,41.33
2022-10-19T14:00:23.995Z,41.20
2022-10-19T14:03:23.877Z,40.84
2022-10-19T14:06:12.584Z,41.38
2022-10-19T14:09:16.868Z,40.88
2022-10-19T14:11:48.227Z,40.86
2022-10-19T14:14:19.751Z,41.99
2022-10-19T14:17:03.197Z,41.49
2022-10-19T14:19:45.858Z,41.33
2022-10-19T14:22:34.140Z,40.28
2022-10-19T14:25:19.472Z,40.52
2022-10-19T14:27:50.714Z,40.57
2022-10-19T14:30:32.342Z,40.03
2022-10-19T14:33:02.797Z,40.53
2022-10-19T14:35:35.009Z,40.30
2022-10-19T14:38:05.501Z,40.30
2022-10-19T14:40:38.871Z,40.91
2022-10-19T14:43:28.059Z,40.98
2022-10-19T14:46:15.155Z,41.13
2022-10-19T14:48:45.772Z,40.35
2022-10-19T14:51:29.444Z,40.93
2022-10-19T14:54:11.645Z,40.73
2022-10-19T14:56:52.642Z,41.73
2022-10-19T14:59:39.850Z,41.60
2022-10-19T15:02:28.286Z,41.38
2022-10-19T15:04:59.264Z,42.10
2022-10-19T15:07:40.382Z,42.50
2022-10-19T15:10:35.720Z,42.19
2022-10-19T15:13:06.760Z,42.04
2022-10-19T15:15:35.794Z,41.89
2022-10-19T15:18:04.030Z,41.83
2022-10-19T15:20:49.073Z,42.03
2022-10-19T15:23:40.180Z,42.29
2022-10-19T15:26:29.053Z,42.58
2022-10-19T15:29:20.812Z,42.50
2022-10-19T15:31:49.565Z,43.01
2022-10-19T15:34:26.060Z,43.23
2022-10-19T15:37:01.401Z,43.43
2022-10-19T15:39:41.003Z,43.57
2022-10-19T15:42:48.782Z,43.72
2022-10-19T15:45:37.879Z,44.11
2022-10-19T15:48:12.145Z,44.60
2022-10-19T15:50:44.744Z,44.66
2022-10-19T15:53:11.863Z,44.82
2022-10-19T15:55:38.909Z,44.82
2022-10-19T15:58:06.108Z,45.11
2022-10-19T16:00:33.239Z,45.17
2022-10-19T16:03:00.342Z,45.24
2022-10-19T16:05:30.364Z,44.82
2022-10-19T16:07:58.032Z,44.78
2022-10-19T16:10:26.890Z,44.89
2022-10-19T16:12:54.280Z,44.98
2022-10-19T16:15:23.429Z,44.86
2022-10-19T16:17:58.389Z,45.40
2022-10-19T16:20:27.900Z,45.73
2022-10-19T16:22:55.165Z,45.86
2022-10-19T16:25:23.052Z,46.25
2022-10-19T16:27:50.263Z,46.72
2022-10-19T16:30:17.614Z,46.88
2022-10-19T16:32:44.990Z,46.99
2022-10-19T16:35:12.227Z,47.41
2022-10-19T16:37:39.259Z,47.73
2022-10-19T16:40:07.291Z,47.76
2022-10-19T16:42:35.069Z,48.31
2022-10-19T16:45:03.019Z,48.55
2022-10-19T16:47:30.366Z,48.26
2022-10-19T16:50:00.183Z,48.02
2022-10-19T16:52:34.764Z,48.64
2022-10-19T16:55:02.490Z,49.23
2022-10-19T16:57:29.681Z,49.54
2022-10-19T16:59:56.786Z,49.92
2022-10-19T17:02:24.006Z,49.81
2022-10-19T17:04:51.167Z,49.81
2022-10-19T17:07:18.661Z,49.94
2022-10-19T17:09:49.791Z,50.44
2022-10-19T17:12:19.864Z,50.33
2022-10-19T17:14:46.991Z,50.64
2022-10-19T17:17:14.189Z,51.02
2022-10-19T17:19:41.413Z,51.18
2022-10-19T17:22:08.486Z,51.04
2022-10-19T17:24:37.488Z,51.06
2022-10-19T17:27:04.596Z,51.27
2022-10-19T17:29:31.759Z,51.24
2022-10-19T17:31:59.490Z,51.54
2022-10-19T17:34:27.490Z,51.60
2022-10-19T17:36:54.626Z,51.48
2022-10-19T17:39:28.931Z,51.51
2022-10-19T17:42:01.665Z,51.48
2022-10-19T17:44:30.771Z,51.42
2022-10-19T17:46:59.350Z,51.71
2022-10-19T17:49:26.441Z,52.13
2022-10-19T17:51:53.690Z,52.02
2022-10-19T17:54:20.787Z,52.17
2022-10-19T17:56:47.876Z,52.58
2022-10-19T17:59:15.616Z,52.84
2022-10-19T18:01:43.054Z,53.36
2022-10-19T18:04:10.334Z,53.94
2022-10-19T18:06:38.791Z,53.96
2022-10-19T18:09:09.245Z,54.02
2022-10-19T18:11:40.964Z,54.16
2022-10-19T18:14:09.854Z,54.66
2022-10-19T18:16:47.411Z,55.32
2022-10-19T18:19:18.474Z,55.37
2022-10-19T18:21:47.823Z,55.67
2022-10-19T18:24:19.866Z,55.54
2022-10-19T18:26:50.934Z,55.67
2022-10-19T18:29:24.628Z,55.17
2022-10-19T18:31:52.638Z,55.52
2022-10-19T18:34:24.269Z,55.69
2022-10-19T18:36:52.675Z,55.53
2022-10-19T18:39:20.428Z,55.67
2022-10-19T18:41:54.100Z,56.25
2022-10-19T18:44:25.481Z,56.63
2022-10-19T18:46:56.783Z,56.40
2022-10-19T18:49:24.455Z,56.63
2022-10-19T18:51:55.079Z,56.56
2022-10-19T18:54:24.820Z,56.62
2022-10-19T18:56:51.962Z,56.36
2022-10-19T18:59:19.245Z,56.20
2022-10-19T19:01:46.364Z,56.40
2022-10-19T19:04:14.025Z,56.67
2022-10-19T19:06:42.033Z,56.79
2022-10-19T19:09:12.211Z,56.61
2022-10-19T19:11:41.194Z,56.54
2022-10-19T19:14:18.337Z,56.72
2022-10-19T19:16:46.161Z,56.99
2022-10-19T19:19:16.700Z,57.28
2022-10-19T19:21:45.098Z,57.81
2022-10-19T19:24:22.806Z,58.12
2022-10-19T19:26:53.060Z,58.50
2022-10-19T19:29:21.674Z,58.55
2022-10-19T19:31:49.114Z,58.61
2022-10-19T19:34:16.606Z,58.84
2022-10-19T19:36:48.345Z,59.13
2022-10-19T19:39:19.375Z,59.30
2022-10-19T19:41:47.657Z,59.39
2022-10-19T19:44:15.248Z,59.38
2022-10-19T19:46:42.332Z,59.39
2022-10-19T19:49:09.620Z,59.79
2022-10-19T19:51:36.671Z,59.50
2022-10-19T19:54:04.674Z,59.38
2022-10-19T19:56:31.966Z,59.36
2022-10-19T19:59:03.596Z,59.38
2022-10-19T20:01:31.724Z,59.72
2022-10-19T20:03:59.747Z,59.84
2022-10-19T20:06:27.026Z,59.42
2022-10-19T20:08:56.461Z,59.32
2022-10-19T20:11:26.985Z,59.59
2022-10-19T20:13:54.493Z,59.48
2022-10-19T20:16:29.091Z,59.29
2022-10-19T20:19:06.225Z,59.31
2022-10-19T20:21:33.765Z,59.76
2022-10-19T20:24:01.584Z,59.94
2022-10-19T20:26:29.387Z,59.83
2022-10-19T20:28:57.009Z,60.15
2022-10-19T20:31:25.123Z,60.12
2022-10-19T20:33:52.165Z,60.17
2022-10-19T20:36:25.494Z,60.07
2022-10-19T20:38:58.320Z,60.04
2022-10-19T20:41:27.904Z,59.83
2022-10-19T20:43:55.565Z,60.15
2022-10-19T20:46:29.297Z,60.17
2022-10-19T20:49:00.937Z,60.25
2022-10-19T20:51:32.597Z,60.20
2022-10-19T20:54:02.792Z,60.06
2022-10-19T20:56:33.559Z,60.21
2022-10-19T20:59:12.713Z,60.08
2022-10-19T21:01:41.496Z,60.27
2022-10-19T21:04:12.866Z,60.28
2022-10-19T21:06:46.841Z,60.14
2022-10-19T21:09:17.195Z,60.16
2022-10-19T21:11:46.135Z,60.11
2022-10-19T21:14:25.239Z,60.11
2022-10-19T21:16:57.382Z,60.13
2022-10-19T21:19:27.168Z,59.72
2022-10-19T21:22:03.744Z,59.71
2022-10-19T21:24:34.790Z,59.58
2022-10-19T21:27:05.160Z,59.53
2022-10-19T21:29:32.208Z,59.47
2022-10-19T21:31:59.669Z,59.34
2022-10-19T21:34:29.642Z,59.46
2022-10-19T21:36:57.029Z,59.57
2022-10-19T21:39:24.428Z,59.63
2022-10-19T21:41:51.516Z,59.84
2022-10-19T21:44:19.287Z,59.65
2022-10-19T21:46:49.556Z,59.71
2022-10-19T21:49:17.429Z,59.82
2022-10-19T21:51:51.752Z,59.75
2022-10-19T21:54:22.239Z,59.92
2022-10-19T21:56:49.407Z,59.75
2022-10-19T21:59:17.569Z,59.58
2022-10-19T22:01:46.108Z,59.65
2022-10-19T22:04:16.601Z,59.71
2022-10-19T22:06:44.268Z,59.74
2022-10-19T22:09:16.185Z,59.98
2022-10-19T22:11:43.937Z,59.98
2022-10-19T22:14:13.747Z,60.10
2022-10-19T22:16:42.042Z,60.05
2022-10-19T22:19:10.181Z,60.09
2022-10-19T22:24:08.748Z,60.25
2022-10-19T22:26:41.112Z,60.36
2022-10-19T22:29:08.593Z,60.31
2022-10-19T22:31:36.713Z,60.32
2022-10-19T22:34:12.523Z,60.30
2022-10-19T22:36:39.616Z,60.41
2022-10-19T22:39:10.687Z,60.34
2022-10-19T22:41:40.838Z,60.56
2022-10-19T22:44:07.918Z,60.58
2022-10-19T22:46:35.031Z,60.54
2022-10-19T22:49:02.175Z,60.56
2022-10-19T22:51:29.631Z,60.45
2022-10-19T22:53:56.885Z,60.38
2022-10-19T22:56:24.089Z,60.50
2022-10-19T22:58:52.338Z,60.53
2022-10-19T23:01:19.722Z,60.86
2022-10-19T23:03:46.917Z,60.94
2022-10-19T23:06:15.598Z,60.60
2022-10-19T23:08:44.693Z,60.56
2022-10-19T23:11:12.203Z,60.65
2022-10-19T23:13:40.185Z,60.61
2022-10-19T23:16:08.461Z,60.86
2022-10-19T23:18:42.382Z,60.99
2022-10-19T23:21:13.131Z,60.99
2022-10-19T23:23:41.055Z,61.08
2022-10-19T23:26:18.779Z,61.21
2022-10-19T23:28:48.223Z,61.12
2022-10-19T23:31:27.030Z,61.06
2022-10-19T23:33:56.763Z,61.30
2022-10-19T23:36:27.329Z,61.46
2022-10-19T23:38:56.637Z,61.54
2022-10-19T23:41:24.275Z,61.58
2022-10-19T23:43:51.452Z,61.59
2022-10-19T23:46:18.582Z,61.51
2022-10-19T23:48:45.699Z,61.64
2022-10-19T23:51:16.477Z,61.81
2022-10-19T23:53:47.149Z,61.60
2022-10-19T23:56:27.076Z,61.66
2022-10-19T23:58:57.785Z,61.57
